sensor_id;sensor_type;location;lat;lon;timestamp;P1;durP1;ratioP1;P2;durP2;ratioP2
20623;SDS011;10471;42.736;23.346;2022-09-09T00:05:12;18.03;;;14.93;;
20623;SDS011;10471;42.736;23.346;2022-09-09T00:07:47;16.70;;;15.00;;
20623;SDS011;10471;42.736;23.346;2022-09-09T00:18:44;20.20;;;15.77;;
20623;SDS011;10471;42.736;23.346;2022-09-09T00:21:14;19.40;;;15.87;;
20623;SDS011;10471;42.736;23.346;2022-09-09T00:23:53;18.53;;;15.40;;
20623;SDS011;10471;42.736;23.346;2022-09-09T00:31:32;17.40;;;15.57;;
20623;SDS011;10471;42.736;23.346;2022-09-09T00:34:00;18.97;;;16.97;;
20623;SDS011;10471;42.736;23.346;2022-09-09T00:36:35;19.33;;;16.60;;
20623;SDS011;10471;42.736;23.346;2022-09-09T00:39:03;18.87;;;16.97;;
20623;SDS011;10471;42.736;23.346;2022-09-09T00:49:58;22.87;;;18.17;;
20623;SDS011;10471;42.736;23.346;2022-09-09T00:52:32;21.33;;;18.10;;
20623;SDS011;10471;42.736;23.346;2022-09-09T00:55:25;22.30;;;18.47;;
20623;SDS011;10471;42.736;23.346;2022-09-09T00:58:08;20.37;;;18.27;;
20623;SDS011;10471;42.736;23.346;2022-09-09T01:08:42;20.30;;;18.20;;
20623;SDS011;10471;42.736;23.346;2022-09-09T01:11:42;19.67;;;17.57;;
20623;SDS011;10471;42.736;23.346;2022-09-09T01:14:20;20.23;;;18.00;;
20623;SDS011;10471;42.736;23.346;2022-09-09T01:16:56;27.67;;;18.97;;
20623;SDS011;10471;42.736;23.346;2022-09-09T01:20:10;21.10;;;18.90;;
20623;SDS011;10471;42.736;23.346;2022-09-09T01:28:09;24.67;;;21.40;;
20623;SDS011;10471;42.736;23.346;2022-09-09T01:30:41;24.03;;;21.53;;
20623;SDS011;10471;42.736;23.346;2022-09-09T01:33:09;25.17;;;21.20;;
20623;SDS011;10471;42.736;23.346;2022-09-09T01:35:52;22.23;;;19.93;;
20623;SDS011;10471;42.736;23.346;2022-09-09T01:38:25;24.43;;;21.73;;
20623;SDS011;10471;42.736;23.346;2022-09-09T01:40:53;24.43;;;20.50;;
20623;SDS011;10471;42.736;23.346;2022-09-09T01:43:19;23.87;;;20.77;;
20623;SDS011;10471;42.736;23.346;2022-09-09T01:45:46;22.83;;;20.30;;
20623;SDS011;10471;42.736;23.346;2022-09-09T01:48:16;22.33;;;19.83;;
20623;SDS011;10471;42.736;23.346;2022-09-09T01:50:42;20.63;;;18.53;;
20623;SDS011;10471;42.736;23.346;2022-09-09T01:53:08;22.30;;;19.90;;
20623;SDS011;10471;42.736;23.346;2022-09-09T01:55:38;21.33;;;18.93;;
20623;SDS011;10471;42.736;23.346;2022-09-09T01:58:20;21.83;;;19.20;;
20623;SDS011;10471;42.736;23.346;2022-09-09T02:00:54;21.63;;;18.83;;
20623;SDS011;10471;42.736;23.346;2022-09-09T02:03:27;20.37;;;18.20;;
20623;SDS011;10471;42.736;23.346;2022-09-09T02:13:39;21.30;;;18.77;;
20623;SDS011;10471;42.736;23.346;2022-09-09T02:16:07;21.63;;;19.17;;
20623;SDS011;10471;42.736;23.346;2022-09-09T02:21:00;22.07;;;19.43;;
20623;SDS011;10471;42.736;23.346;2022-09-09T02:23:28;22.00;;;19.70;;
20623;SDS011;10471;42.736;23.346;2022-09-09T02:25:53;21.30;;;19.10;;
20623;SDS011;10471;42.736;23.346;2022-09-09T02:28:23;23.53;;;20.20;;
20623;SDS011;10471;42.736;23.346;2022-09-09T02:30:52;22.50;;;19.83;;
20623;SDS011;10471;42.736;23.346;2022-09-09T02:33:20;23.93;;;20.23;;
20623;SDS011;10471;42.736;23.346;2022-09-09T02:35:52;24.87;;;19.07;;
20623;SDS011;10471;42.736;23.346;2022-09-09T02:38:21;22.90;;;20.27;;
20623;SDS011;10471;42.736;23.346;2022-09-09T02:40:51;26.30;;;20.27;;
20623;SDS011;10471;42.736;23.346;2022-09-09T02:43:17;24.77;;;21.43;;
20623;SDS011;10471;42.736;23.346;2022-09-09T02:46:08;23.30;;;20.80;;
20623;SDS011;10471;42.736;23.346;2022-09-09T02:48:47;23.73;;;21.17;;
20623;SDS011;10471;42.736;23.346;2022-09-09T02:51:24;23.17;;;20.77;;
20623;SDS011;10471;42.736;23.346;2022-09-09T02:53:56;24.17;;;20.63;;
20623;SDS011;10471;42.736;23.346;2022-09-09T02:56:32;24.13;;;20.53;;
20623;SDS011;10471;42.736;23.346;2022-09-09T02:59:05;25.90;;;20.93;;
20623;SDS011;10471;42.736;23.346;2022-09-09T03:01:31;25.97;;;21.17;;
20623;SDS011;10471;42.736;23.346;2022-09-09T03:03:56;25.67;;;20.53;;
20623;SDS011;10471;42.736;23.346;2022-09-09T03:06:22;27.43;;;20.60;;
20623;SDS011;10471;42.736;23.346;2022-09-09T03:08:47;24.07;;;19.67;;
20623;SDS011;10471;42.736;23.346;2022-09-09T03:11:14;23.07;;;19.77;;
20623;SDS011;10471;42.736;23.346;2022-09-09T03:13:40;26.10;;;21.30;;
20623;SDS011;10471;42.736;23.346;2022-09-09T03:16:05;24.23;;;20.07;;
20623;SDS011;10471;42.736;23.346;2022-09-09T03:18:31;24.57;;;20.73;;
20623;SDS011;10471;42.736;23.346;2022-09-09T03:20:57;24.17;;;20.53;;
20623;SDS011;10471;42.736;23.346;2022-09-09T03:23:24;30.43;;;20.60;;
20623;SDS011;10471;42.736;23.346;2022-09-09T03:25:50;28.40;;;20.73;;
20623;SDS011;10471;42.736;23.346;2022-09-09T03:28:16;29.40;;;22.03;;
20623;SDS011;10471;42.736;23.346;2022-09-09T03:30:42;27.60;;;20.63;;
20623;SDS011;10471;42.736;23.346;2022-09-09T03:33:08;30.53;;;20.80;;
20623;SDS011;10471;42.736;23.346;2022-09-09T03:35:33;25.13;;;20.43;;
20623;SDS011;10471;42.736;23.346;2022-09-09T03:37:58;27.13;;;19.83;;
20623;SDS011;10471;42.736;23.346;2022-09-09T03:40:25;32.03;;;20.27;;
20623;SDS011;10471;42.736;23.346;2022-09-09T03:42:51;26.83;;;20.33;;
20623;SDS011;10471;42.736;23.346;2022-09-09T03:45:16;24.73;;;20.43;;
20623;SDS011;10471;42.736;23.346;2022-09-09T03:47:42;27.57;;;19.93;;
20623;SDS011;10471;42.736;23.346;2022-09-09T03:50:07;23.93;;;20.47;;
20623;SDS011;10471;42.736;23.346;2022-09-09T03:52:35;30.00;;;20.67;;
20623;SDS011;10471;42.736;23.346;2022-09-09T03:55:06;32.90;;;21.80;;
20623;SDS011;10471;42.736;23.346;2022-09-09T03:57:31;44.60;;;22.10;;
20623;SDS011;10471;42.736;23.346;2022-09-09T03:59:59;33.97;;;20.17;;
20623;SDS011;10471;42.736;23.346;2022-09-09T04:02:26;30.10;;;20.47;;
20623;SDS011;10471;42.736;23.346;2022-09-09T04:04:52;36.77;;;21.63;;
20623;SDS011;10471;42.736;23.346;2022-09-09T04:07:17;35.80;;;22.00;;
20623;SDS011;10471;42.736;23.346;2022-09-09T04:09:42;45.60;;;21.80;;
20623;SDS011;10471;42.736;23.346;2022-09-09T04:12:08;36.13;;;22.30;;
20623;SDS011;10471;42.736;23.346;2022-09-09T04:14:33;31.70;;;20.67;;
20623;SDS011;10471;42.736;23.346;2022-09-09T04:16:58;39.10;;;21.47;;
20623;SDS011;10471;42.736;23.346;2022-09-09T04:19:24;52.50;;;21.33;;
20623;SDS011;10471;42.736;23.346;2022-09-09T04:21:50;32.33;;;21.37;;
20623;SDS011;10471;42.736;23.346;2022-09-09T04:24:16;37.27;;;20.67;;
20623;SDS011;10471;42.736;23.346;2022-09-09T04:26:42;31.90;;;20.57;;
20623;SDS011;10471;42.736;23.346;2022-09-09T04:29:07;29.23;;;22.27;;
20623;SDS011;10471;42.736;23.346;2022-09-09T04:31:33;26.07;;;21.83;;
20623;SDS011;10471;42.736;23.346;2022-09-09T04:33:58;29.80;;;22.13;;
20623;SDS011;10471;42.736;23.346;2022-09-09T04:36:27;24.63;;;21.30;;
20623;SDS011;10471;42.736;23.346;2022-09-09T04:38:53;27.20;;;21.77;;
20623;SDS011;10471;42.736;23.346;2022-09-09T04:41:18;29.67;;;22.63;;
20623;SDS011;10471;42.736;23.346;2022-09-09T04:43:43;24.57;;;21.73;;
20623;SDS011;10471;42.736;23.346;2022-09-09T04:46:09;25.43;;;21.97;;
20623;SDS011;10471;42.736;23.346;2022-09-09T04:48:35;27.73;;;22.27;;
20623;SDS011;10471;42.736;23.346;2022-09-09T04:51:01;34.00;;;22.33;;
20623;SDS011;10471;42.736;23.346;2022-09-09T04:53:29;39.63;;;22.53;;
20623;SDS011;10471;42.736;23.346;2022-09-09T04:56:05;30.77;;;21.93;;
20623;SDS011;10471;42.736;23.346;2022-09-09T04:58:31;30.27;;;21.60;;
20623;SDS011;10471;42.736;23.346;2022-09-09T05:01:04;34.13;;;20.73;;
20623;SDS011;10471;42.736;23.346;2022-09-09T05:03:29;34.13;;;20.80;;
20623;SDS011;10471;42.736;23.346;2022-09-09T05:06:01;37.07;;;22.77;;
20623;SDS011;10471;42.736;23.346;2022-09-09T05:08:30;30.60;;;22.17;;
20623;SDS011;10471;42.736;23.346;2022-09-09T05:10:55;28.63;;;21.50;;
20623;SDS011;10471;42.736;23.346;2022-09-09T05:13:21;30.93;;;20.50;;
20623;SDS011;10471;42.736;23.346;2022-09-09T05:15:54;22.67;;;20.17;;
20623;SDS011;10471;42.736;23.346;2022-09-09T05:18:19;22.13;;;19.30;;
20623;SDS011;10471;42.736;23.346;2022-09-09T05:20:47;24.23;;;19.63;;
20623;SDS011;10471;42.736;23.346;2022-09-09T05:23:13;30.20;;;22.23;;
20623;SDS011;10471;42.736;23.346;2022-09-09T05:25:38;27.13;;;23.67;;
20623;SDS011;10471;42.736;23.346;2022-09-09T05:28:05;25.60;;;22.70;;
20623;SDS011;10471;42.736;23.346;2022-09-09T05:30:32;26.23;;;23.40;;
20623;SDS011;10471;42.736;23.346;2022-09-09T05:32:58;18.50;;;16.57;;
20623;SDS011;10471;42.736;23.346;2022-09-09T05:35:24;18.97;;;17.07;;
20623;SDS011;10471;42.736;23.346;2022-09-09T05:37:50;23.30;;;16.60;;
20623;SDS011;10471;42.736;23.346;2022-09-09T05:40:15;19.40;;;17.50;;
20623;SDS011;10471;42.736;23.346;2022-09-09T05:42:40;25.80;;;18.27;;
20623;SDS011;10471;42.736;23.346;2022-09-09T05:45:07;22.27;;;19.03;;
20623;SDS011;10471;42.736;23.346;2022-09-09T05:47:33;22.30;;;19.70;;
20623;SDS011;10471;42.736;23.346;2022-09-09T05:50:00;21.47;;;17.80;;
20623;SDS011;10471;42.736;23.346;2022-09-09T05:52:25;20.73;;;17.60;;
20623;SDS011;10471;42.736;23.346;2022-09-09T05:54:52;21.00;;;18.73;;
20623;SDS011;10471;42.736;23.346;2022-09-09T05:57:19;22.87;;;16.37;;
20623;SDS011;10471;42.736;23.346;2022-09-09T05:59:45;19.00;;;17.17;;
20623;SDS011;10471;42.736;23.346;2022-09-09T06:02:10;26.37;;;23.67;;
20623;SDS011;10471;42.736;23.346;2022-09-09T06:04:37;18.30;;;16.47;;
20623;SDS011;10471;42.736;23.346;2022-09-09T06:07:04;23.10;;;18.67;;
20623;SDS011;10471;42.736;23.346;2022-09-09T06:09:29;22.57;;;20.20;;
20623;SDS011;10471;42.736;23.346;2022-09-09T06:11:55;27.17;;;23.23;;
20623;SDS011;10471;42.736;23.346;2022-09-09T06:14:23;25.77;;;22.87;;
20623;SDS011;10471;42.736;23.346;2022-09-09T06:16:50;28.73;;;23.43;;
20623;SDS011;10471;42.736;23.346;2022-09-09T06:19:16;24.63;;;19.57;;
20623;SDS011;10471;42.736;23.346;2022-09-09T06:21:41;20.13;;;14.90;;
20623;SDS011;10471;42.736;23.346;2022-09-09T06:24:07;18.47;;;15.43;;
20623;SDS011;10471;42.736;23.346;2022-09-09T06:26:37;19.47;;;15.93;;
20623;SDS011;10471;42.736;23.346;2022-09-09T06:29:05;17.53;;;15.23;;
20623;SDS011;10471;42.736;23.346;2022-09-09T06:31:31;18.40;;;15.20;;
20623;SDS011;10471;42.736;23.346;2022-09-09T06:33:59;24.27;;;17.50;;
20623;SDS011;10471;42.736;23.346;2022-09-09T06:36:26;15.03;;;13.03;;
20623;SDS011;10471;42.736;23.346;2022-09-09T06:38:53;14.40;;;11.40;;
20623;SDS011;10471;42.736;23.346;2022-09-09T06:41:21;16.83;;;10.73;;
20623;SDS011;10471;42.736;23.346;2022-09-09T06:43:47;16.53;;;10.67;;
20623;SDS011;10471;42.736;23.346;2022-09-09T06:46:14;15.37;;;10.83;;
20623;SDS011;10471;42.736;23.346;2022-09-09T06:48:44;13.57;;;10.47;;
20623;SDS011;10471;42.736;23.346;2022-09-09T06:51:11;12.47;;;9.90;;
20623;SDS011;10471;42.736;23.346;2022-09-09T06:53:38;11.53;;;9.87;;
20623;SDS011;10471;42.736;23.346;2022-09-09T07:01:05;11.67;;;8.67;;
20623;SDS011;10471;42.736;23.346;2022-09-09T07:03:31;11.90;;;8.13;;
20623;SDS011;10471;42.736;23.346;2022-09-09T07:05:57;8.90;;;7.70;;
20623;SDS011;10471;42.736;23.346;2022-09-09T07:08:23;12.13;;;8.40;;
20623;SDS011;10471;42.736;23.346;2022-09-09T07:10:50;11.27;;;8.53;;
20623;SDS011;10471;42.736;23.346;2022-09-09T07:13:18;13.43;;;7.90;;
20623;SDS011;10471;42.736;23.346;2022-09-09T07:15:45;11.50;;;7.80;;
20623;SDS011;10471;42.736;23.346;2022-09-09T07:18:10;13.43;;;8.30;;
20623;SDS011;10471;42.736;23.346;2022-09-09T07:20:35;13.30;;;8.93;;
20623;SDS011;10471;42.736;23.346;2022-09-09T07:23:01;14.13;;;8.47;;
20623;SDS011;10471;42.736;23.346;2022-09-09T07:25:26;10.00;;;8.50;;
20623;SDS011;10471;42.736;23.346;2022-09-09T07:27:53;12.60;;;8.13;;
20623;SDS011;10471;42.736;23.346;2022-09-09T07:30:19;13.33;;;8.60;;
20623;SDS011;10471;42.736;23.346;2022-09-09T07:32:45;11.23;;;7.67;;
20623;SDS011;10471;42.736;23.346;2022-09-09T07:35:10;9.77;;;7.57;;
20623;SDS011;10471;42.736;23.346;2022-09-09T07:37:37;8.90;;;8.00;;
20623;SDS011;10471;42.736;23.346;2022-09-09T07:40:03;11.53;;;7.83;;
20623;SDS011;10471;42.736;23.346;2022-09-09T07:42:30;10.27;;;7.20;;
20623;SDS011;10471;42.736;23.346;2022-09-09T07:44:55;10.00;;;7.20;;
20623;SDS011;10471;42.736;23.346;2022-09-09T07:47:21;9.43;;;7.17;;
20623;SDS011;10471;42.736;23.346;2022-09-09T07:49:46;15.17;;;7.23;;
20623;SDS011;10471;42.736;23.346;2022-09-09T07:52:14;7.73;;;7.00;;
20623;SDS011;10471;42.736;23.346;2022-09-09T07:54:40;14.27;;;7.10;;
20623;SDS011;10471;42.736;23.346;2022-09-09T07:57:06;11.03;;;6.50;;
20623;SDS011;10471;42.736;23.346;2022-09-09T07:59:32;11.50;;;6.27;;
20623;SDS011;10471;42.736;23.346;2022-09-09T08:01:57;11.03;;;6.20;;
20623;SDS011;10471;42.736;23.346;2022-09-09T08:04:23;7.03;;;5.57;;
20623;SDS011;10471;42.736;23.346;2022-09-09T08:06:51;6.90;;;6.20;;
20623;SDS011;10471;42.736;23.346;2022-09-09T08:09:19;8.37;;;6.20;;
20623;SDS011;10471;42.736;23.346;2022-09-09T08:11:45;8.03;;;6.63;;
20623;SDS011;10471;42.736;23.346;2022-09-09T08:14:11;6.67;;;6.07;;
20623;SDS011;10471;42.736;23.346;2022-09-09T08:16:38;6.80;;;6.10;;
20623;SDS011;10471;42.736;23.346;2022-09-09T08:19:06;11.97;;;6.23;;
20623;SDS011;10471;42.736;23.346;2022-09-09T08:21:32;6.83;;;5.80;;
20623;SDS011;10471;42.736;23.346;2022-09-09T08:24:00;11.73;;;6.10;;
20623;SDS011;10471;42.736;23.346;2022-09-09T08:26:30;7.23;;;6.30;;
20623;SDS011;10471;42.736;23.346;2022-09-09T08:29:09;10.87;;;6.40;;
20623;SDS011;10471;42.736;23.346;2022-09-09T08:31:46;10.73;;;6.23;;
20623;SDS011;10471;42.736;23.346;2022-09-09T08:34:13;10.03;;;6.27;;
20623;SDS011;10471;42.736;23.346;2022-09-09T08:36:40;10.30;;;5.70;;
20623;SDS011;10471;42.736;23.346;2022-09-09T08:39:07;15.17;;;12.07;;
20623;SDS011;10471;42.736;23.346;2022-09-09T08:50:15;12.17;;;7.17;;
20623;SDS011;10471;42.736;23.346;2022-09-09T08:57:56;9.87;;;6.40;;
20623;SDS011;10471;42.736;23.346;2022-09-09T09:00:28;10.63;;;6.27;;
20623;SDS011;10471;42.736;23.346;2022-09-09T09:03:06;9.53;;;6.33;;
20623;SDS011;10471;42.736;23.346;2022-09-09T09:05:48;9.47;;;5.97;;
20623;SDS011;10471;42.736;23.346;2022-09-09T09:08:32;9.33;;;5.97;;
20623;SDS011;10471;42.736;23.346;2022-09-09T09:11:08;7.80;;;6.33;;
20623;SDS011;10471;42.736;23.346;2022-09-09T09:13:35;9.37;;;6.00;;
20623;SDS011;10471;42.736;23.346;2022-09-09T09:16:26;9.30;;;6.03;;
20623;SDS011;10471;42.736;23.346;2022-09-09T09:18:59;9.97;;;6.13;;
20623;SDS011;10471;42.736;23.346;2022-09-09T09:21:36;8.37;;;6.00;;
20623;SDS011;10471;42.736;23.346;2022-09-09T09:24:03;6.63;;;5.67;;
20623;SDS011;10471;42.736;23.346;2022-09-09T09:26:36;12.83;;;6.20;;
20623;SDS011;10471;42.736;23.346;2022-09-09T09:29:12;9.23;;;6.20;;
20623;SDS011;10471;42.736;23.346;2022-09-09T09:31:45;10.53;;;6.27;;
20623;SDS011;10471;42.736;23.346;2022-09-09T09:34:16;8.57;;;7.00;;
20623;SDS011;10471;42.736;23.346;2022-09-09T09:36:46;7.27;;;6.00;;
20623;SDS011;10471;42.736;23.346;2022-09-09T09:39:31;10.63;;;6.40;;
20623;SDS011;10471;42.736;23.346;2022-09-09T09:42:15;9.27;;;6.17;;
20623;SDS011;10471;42.736;23.346;2022-09-09T09:44:42;9.07;;;6.37;;
20623;SDS011;10471;42.736;23.346;2022-09-09T09:49:38;16.00;;;6.97;;
20623;SDS011;10471;42.736;23.346;2022-09-09T09:52:05;7.03;;;6.23;;
20623;SDS011;10471;42.736;23.346;2022-09-09T09:57:34;10.70;;;7.10;;
20623;SDS011;10471;42.736;23.346;2022-09-09T10:00:28;10.63;;;6.77;;
20623;SDS011;10471;42.736;23.346;2022-09-09T10:02:48;10.80;;;7.37;;
20623;SDS011;10471;42.736;23.346;2022-09-09T10:05:20;13.77;;;12.30;;
20623;SDS011;10471;42.736;23.346;2022-09-09T10:07:46;8.57;;;7.07;;
20623;SDS011;10471;42.736;23.346;2022-09-09T10:10:26;7.57;;;6.80;;
20623;SDS011;10471;42.736;23.346;2022-09-09T10:13:20;11.63;;;7.60;;
20623;SDS011;10471;42.736;23.346;2022-09-09T10:24:22;13.83;;;10.23;;
20623;SDS011;10471;42.736;23.346;2022-09-09T10:29:52;11.73;;;7.80;;
20623;SDS011;10471;42.736;23.346;2022-09-09T10:51:40;14.50;;;7.93;;
20623;SDS011;10471;42.736;23.346;2022-09-09T10:57:00;13.50;;;9.43;;
20623;SDS011;10471;42.736;23.346;2022-09-09T10:59:31;9.23;;;7.83;;
20623;SDS011;10471;42.736;23.346;2022-09-09T11:02:03;15.00;;;8.30;;
20623;SDS011;10471;42.736;23.346;2022-09-09T11:04:45;13.53;;;7.90;;
20623;SDS011;10471;42.736;23.346;2022-09-09T11:07:24;12.97;;;8.30;;
20623;SDS011;10471;42.736;23.346;2022-09-09T11:09:56;16.97;;;8.37;;
20623;SDS011;10471;42.736;23.346;2022-09-09T11:12:27;13.10;;;8.03;;
20623;SDS011;10471;42.736;23.346;2022-09-09T11:14:59;15.63;;;8.70;;
20623;SDS011;10471;42.736;23.346;2022-09-09T11:17:36;16.33;;;10.10;;
20623;SDS011;10471;42.736;23.346;2022-09-09T11:20:12;22.77;;;18.67;;
20623;SDS011;10471;42.736;23.346;2022-09-09T11:25:46;14.63;;;9.50;;
20623;SDS011;10471;42.736;23.346;2022-09-09T11:33:55;15.40;;;9.20;;
20623;SDS011;10471;42.736;23.346;2022-09-09T11:36:33;11.03;;;8.37;;
20623;SDS011;10471;42.736;23.346;2022-09-09T11:42:05;14.40;;;8.80;;
20623;SDS011;10471;42.736;23.346;2022-09-09T11:44:32;14.47;;;8.63;;
20623;SDS011;10471;42.736;23.346;2022-09-09T11:46:58;14.90;;;8.63;;
20623;SDS011;10471;42.736;23.346;2022-09-09T11:51:51;15.40;;;10.20;;
20623;SDS011;10471;42.736;23.346;2022-09-09T11:56:57;10.77;;;9.63;;
20623;SDS011;10471;42.736;23.346;2022-09-09T11:59:32;15.37;;;9.33;;
20623;SDS011;10471;42.736;23.346;2022-09-09T12:01:58;15.53;;;13.37;;
20623;SDS011;10471;42.736;23.346;2022-09-09T12:06:56;13.50;;;9.67;;
20623;SDS011;10471;42.736;23.346;2022-09-09T12:11:51;12.57;;;9.47;;
20623;SDS011;10471;42.736;23.346;2022-09-09T12:17:21;11.07;;;9.87;;
20623;SDS011;10471;42.736;23.346;2022-09-09T12:19:48;11.70;;;8.97;;
20623;SDS011;10471;42.736;23.346;2022-09-09T12:28:15;12.23;;;10.33;;
20623;SDS011;10471;42.736;23.346;2022-09-09T12:33:45;14.37;;;10.03;;
20623;SDS011;10471;42.736;23.346;2022-09-09T12:36:16;15.00;;;10.33;;
20623;SDS011;10471;42.736;23.346;2022-09-09T12:38:54;10.60;;;9.43;;
20623;SDS011;10471;42.736;23.346;2022-09-09T12:41:25;13.23;;;9.77;;
20623;SDS011;10471;42.736;23.346;2022-09-09T12:44:03;11.43;;;9.20;;
20623;SDS011;10471;42.736;23.346;2022-09-09T12:46:38;11.27;;;9.77;;
20623;SDS011;10471;42.736;23.346;2022-09-09T12:52:00;11.40;;;10.07;;
20623;SDS011;10471;42.736;23.346;2022-09-09T12:54:29;14.63;;;10.10;;
20623;SDS011;10471;42.736;23.346;2022-09-09T12:56:55;16.50;;;9.87;;
20623;SDS011;10471;42.736;23.346;2022-09-09T12:59:24;13.43;;;9.90;;
20623;SDS011;10471;42.736;23.346;2022-09-09T13:01:57;14.10;;;9.80;;
20623;SDS011;10471;42.736;23.346;2022-09-09T13:04:23;14.27;;;9.83;;
20623;SDS011;10471;42.736;23.346;2022-09-09T13:06:48;15.67;;;9.90;;
20623;SDS011;10471;42.736;23.346;2022-09-09T13:09:14;15.60;;;10.20;;
20623;SDS011;10471;42.736;23.346;2022-09-09T13:11:44;18.63;;;10.60;;
20623;SDS011;10471;42.736;23.346;2022-09-09T13:14:33;15.07;;;9.77;;
20623;SDS011;10471;42.736;23.346;2022-09-09T13:17:03;15.77;;;9.80;;
20623;SDS011;10471;42.736;23.346;2022-09-09T13:19:31;13.93;;;10.30;;
20623;SDS011;10471;42.736;23.346;2022-09-09T13:22:10;15.00;;;9.70;;
20623;SDS011;10471;42.736;23.346;2022-09-09T13:24:44;16.90;;;9.60;;
20623;SDS011;10471;42.736;23.346;2022-09-09T13:27:23;18.30;;;10.70;;
20623;SDS011;10471;42.736;23.346;2022-09-09T13:29:53;15.23;;;10.27;;
20623;SDS011;10471;42.736;23.346;2022-09-09T13:32:20;13.27;;;9.33;;
20623;SDS011;10471;42.736;23.346;2022-09-09T13:34:50;14.43;;;9.93;;
20623;SDS011;10471;42.736;23.346;2022-09-09T13:37:25;16.13;;;9.53;;
20623;SDS011;10471;42.736;23.346;2022-09-09T13:40:00;14.33;;;9.17;;
20623;SDS011;10471;42.736;23.346;2022-09-09T13:42:28;15.80;;;8.90;;
20623;SDS011;10471;42.736;23.346;2022-09-09T13:44:56;13.60;;;9.73;;
20623;SDS011;10471;42.736;23.346;2022-09-09T13:47:27;13.77;;;8.20;;
20623;SDS011;10471;42.736;23.346;2022-09-09T13:49:56;12.00;;;7.27;;
20623;SDS011;10471;42.736;23.346;2022-09-09T13:52:22;13.57;;;7.10;;
20623;SDS011;10471;42.736;23.346;2022-09-09T13:54:48;9.40;;;7.10;;
20623;SDS011;10471;42.736;23.346;2022-09-09T13:57:20;13.37;;;7.00;;
20623;SDS011;10471;42.736;23.346;2022-09-09T13:59:50;11.30;;;7.13;;
20623;SDS011;10471;42.736;23.346;2022-09-09T14:02:16;15.40;;;7.80;;
20623;SDS011;10471;42.736;23.346;2022-09-09T14:04:43;14.20;;;7.60;;
20623;SDS011;10471;42.736;23.346;2022-09-09T14:07:12;9.83;;;6.57;;
20623;SDS011;10471;42.736;23.346;2022-09-09T14:09:40;12.60;;;7.27;;
20623;SDS011;10471;42.736;23.346;2022-09-09T14:12:08;13.33;;;7.87;;
20623;SDS011;10471;42.736;23.346;2022-09-09T14:14:35;9.93;;;7.10;;
20623;SDS011;10471;42.736;23.346;2022-09-09T14:17:01;12.17;;;7.20;;
20623;SDS011;10471;42.736;23.346;2022-09-09T14:19:26;17.50;;;9.13;;
20623;SDS011;10471;42.736;23.346;2022-09-09T14:21:51;14.97;;;8.53;;
20623;SDS011;10471;42.736;23.346;2022-09-09T14:24:17;14.90;;;9.23;;
20623;SDS011;10471;42.736;23.346;2022-09-09T14:26:42;14.03;;;8.00;;
20623;SDS011;10471;42.736;23.346;2022-09-09T14:29:08;14.13;;;8.13;;
20623;SDS011;10471;42.736;23.346;2022-09-09T14:31:33;21.03;;;7.63;;
20623;SDS011;10471;42.736;23.346;2022-09-09T14:33:59;19.30;;;7.90;;
20623;SDS011;10471;42.736;23.346;2022-09-09T14:36:24;11.97;;;7.40;;
20623;SDS011;10471;42.736;23.346;2022-09-09T14:38:50;14.47;;;7.20;;
20623;SDS011;10471;42.736;23.346;2022-09-09T14:41:17;20.10;;;7.20;;
20623;SDS011;10471;42.736;23.346;2022-09-09T14:43:44;15.97;;;6.90;;
20623;SDS011;10471;42.736;23.346;2022-09-09T14:46:12;12.67;;;6.60;;
20623;SDS011;10471;42.736;23.346;2022-09-09T14:48:42;29.02;;;8.68;;
20623;SDS011;10471;42.736;23.346;2022-09-09T14:51:10;24.35;;;10.30;;
20623;SDS011;10471;42.736;23.346;2022-09-09T14:53:38;30.02;;;12.20;;
20623;SDS011;10471;42.736;23.346;2022-09-09T14:56:05;25.20;;;12.20;;
20623;SDS011;10471;42.736;23.346;2022-09-09T14:58:35;16.47;;;8.10;;
20623;SDS011;10471;42.736;23.346;2022-09-09T15:01:02;14.45;;;6.78;;
20623;SDS011;10471;42.736;23.346;2022-09-09T15:03:32;10.03;;;6.80;;
20623;SDS011;10471;42.736;23.346;2022-09-09T15:05:58;25.43;;;10.17;;
20623;SDS011;10471;42.736;23.346;2022-09-09T15:08:24;27.93;;;17.83;;
20623;SDS011;10471;42.736;23.346;2022-09-09T15:10:50;21.93;;;10.07;;
20623;SDS011;10471;42.736;23.346;2022-09-09T15:13:24;15.50;;;9.03;;
20623;SDS011;10471;42.736;23.346;2022-09-09T15:15:50;15.37;;;7.80;;
20623;SDS011;10471;42.736;23.346;2022-09-09T15:18:15;10.80;;;7.00;;
20623;SDS011;10471;42.736;23.346;2022-09-09T15:20:44;16.50;;;7.00;;
20623;SDS011;10471;42.736;23.346;2022-09-09T15:23:11;15.37;;;6.73;;
20623;SDS011;10471;42.736;23.346;2022-09-09T15:25:37;11.83;;;7.07;;
20623;SDS011;10471;42.736;23.346;2022-09-09T15:28:02;14.13;;;7.60;;
20623;SDS011;10471;42.736;23.346;2022-09-09T15:30:27;11.67;;;7.70;;
20623;SDS011;10471;42.736;23.346;2022-09-09T15:32:53;16.20;;;8.47;;
20623;SDS011;10471;42.736;23.346;2022-09-09T15:35:18;17.53;;;9.03;;
20623;SDS011;10471;42.736;23.346;2022-09-09T15:37:43;15.10;;;8.33;;
20623;SDS011;10471;42.736;23.346;2022-09-09T15:40:10;12.87;;;7.70;;
20623;SDS011;10471;42.736;23.346;2022-09-09T15:42:35;16.53;;;7.97;;
20623;SDS011;10471;42.736;23.346;2022-09-09T15:45:01;16.27;;;8.03;;
20623;SDS011;10471;42.736;23.346;2022-09-09T15:47:26;13.83;;;8.33;;
20623;SDS011;10471;42.736;23.346;2022-09-09T15:49:52;13.87;;;7.63;;
20623;SDS011;10471;42.736;23.346;2022-09-09T15:52:18;13.47;;;8.00;;
20623;SDS011;10471;42.736;23.346;2022-09-09T15:54:43;17.23;;;7.50;;
20623;SDS011;10471;42.736;23.346;2022-09-09T15:57:11;22.47;;;8.87;;
20623;SDS011;10471;42.736;23.346;2022-09-09T15:59:37;15.13;;;8.63;;
20623;SDS011;10471;42.736;23.346;2022-09-09T16:02:03;16.03;;;8.60;;
20623;SDS011;10471;42.736;23.346;2022-09-09T16:04:30;16.00;;;8.70;;
20623;SDS011;10471;42.736;23.346;2022-09-09T16:06:57;26.43;;;9.80;;
20623;SDS011;10471;42.736;23.346;2022-09-09T16:09:26;27.60;;;11.53;;
20623;SDS011;10471;42.736;23.346;2022-09-09T16:11:52;18.67;;;10.77;;
20623;SDS011;10471;42.736;23.346;2022-09-09T16:14:20;25.50;;;12.90;;
20623;SDS011;10471;42.736;23.346;2022-09-09T16:16:46;20.40;;;11.10;;
20623;SDS011;10471;42.736;23.346;2022-09-09T16:19:13;19.10;;;9.23;;
20623;SDS011;10471;42.736;23.346;2022-09-09T16:21:39;15.87;;;9.67;;
20623;SDS011;10471;42.736;23.346;2022-09-09T16:24:07;15.13;;;8.77;;
20623;SDS011;10471;42.736;23.346;2022-09-09T16:26:34;15.30;;;8.60;;
20623;SDS011;10471;42.736;23.346;2022-09-09T16:29:02;14.00;;;8.17;;
20623;SDS011;10471;42.736;23.346;2022-09-09T16:31:28;16.63;;;8.77;;
20623;SDS011;10471;42.736;23.346;2022-09-09T16:33:54;15.20;;;8.67;;
20623;SDS011;10471;42.736;23.346;2022-09-09T16:36:24;14.73;;;8.77;;
20623;SDS011;10471;42.736;23.346;2022-09-09T16:38:54;16.47;;;8.83;;
20623;SDS011;10471;42.736;23.346;2022-09-09T16:41:20;14.83;;;8.83;;
20623;SDS011;10471;42.736;23.346;2022-09-09T16:43:46;12.00;;;8.53;;
20623;SDS011;10471;42.736;23.346;2022-09-09T16:46:13;11.57;;;8.73;;
20623;SDS011;10471;42.736;23.346;2022-09-09T16:48:41;11.43;;;8.43;;
20623;SDS011;10471;42.736;23.346;2022-09-09T16:51:11;15.17;;;8.90;;